Louisville, Colorado
Current Conditions -  °F | °C
As of 3:46 PM on Saturday 20 Dec 2014 (Local Time) from KBJC Reporting Station
Broken Clouds Broken Clouds  
Wind Chill: 41°   Ceiling: 20000
Heat Index: 46°   Visibility: 50mi
Dew Point: 19°   Wind: 10mph
Humidity: 34%   Direction: 60°ENE
Pressure: 29.94"   Gusts: NA
Location:  39.98°N, 105.13°W
Report Text: KBJC 202246Z 06009KT 50SM FEW080 SCT120 BKN200 08/M07 A2994
Loading
Personal Weather Stations






























Interactive Weather Map New forecast layout! Learn more

10-Day Weather Forecast

Advertisements
Track Severe Weather on mobile